메인 페이지
METAR-TAF:

METAR-TAF

공항 :

안토파가스타, 칠레

위도: 23-26S, 경도: 070-26W, 고도: 135m

현재 날씨관측

예보는 1 시간 9분 전, 17:00시(UTC)에 발표되었습니다.
남남서15kt
온도 16°C
습도 68%
기압 1017 hPa
시정 10km 이상
고도 2300ft 상공 구름 조금

METAR: SCFA 211700Z 20015KT 9999 FEW023 16/10 Q1017 NOSIG

시각: 14:09 (18:09 UTC)

예보

예보는 1 시간 13분 전, 16:56시(UTC)에 발표되었습니다.
예보 대상 시간: 21일 18시부터 22일 18시까지 (UTC)
남남서17kt
시정 10km 이상
1500m 미만 상공 구름 및 적란운 없음
전환 중
21일 20시부터 21일 22시까지 (UTC)
고도 2000ft 상공 흐림
전환 중
22일 02시부터 22일 04시까지 (UTC)
남남서7kt
전환 중
22일 14시부터 22일 16시까지 (UTC)
남남서18kt
시정 10km 이상
1500m 미만 상공 구름 및 적란운 없음

TAF: SCFA 211656Z 2118/2218 21017KT CAVOK TX16/2118Z TN12/2206Z BECMG 2120/2122 OVC020 BECMG 2202/2204 20007KT BECMG 2214/2216 20018KT CAVOK

4,000개 이상의 공항 관측 자료 및 예보 (METAR 및 TAF 보고).

지도상에서 검색 가능한 기상관측소가 노란 점과 빨간 점으로 표시되어 있습니다.

기상관측소 명을 보려면 표시 위로 마우스를 이동하세요.

날씨 관측과 예보를 보려면 클릭하세요.

지도 변경 : 확대하려면 엑스 표시가 있는 녹색 버튼, 축소하려면 빼기 표시가 있는 녹색 버튼, 다음 페이지의 지도를 보려면 녹색 화살표를 클릭하세요.


METAR-TAF: